createdAt,value
2019-01-16T00:00:52.177Z,63.41
2019-01-16T00:02:00.225Z,63.51
2019-01-16T00:03:08.268Z,64.83
2019-01-16T00:04:16.310Z,64.36
2019-01-16T00:05:24.368Z,64.54
2019-01-16T00:06:32.431Z,65.48
2019-01-16T00:07:40.459Z,65.48
2019-01-16T00:08:48.531Z,65.96
2019-01-16T00:09:56.589Z,68.51
2019-01-16T00:11:04.652Z,68.51
2019-01-16T00:12:12.688Z,68.23
2019-01-16T00:13:20.725Z,70.02
2019-01-16T00:14:28.797Z,71.15
2019-01-16T00:15:36.887Z,73.13
2019-01-16T00:16:44.894Z,75.68
2019-01-16T00:17:52.954Z,74.64
2019-01-16T00:19:00.984Z,72.94
2019-01-16T00:20:09.072Z,72.19
2019-01-16T00:21:17.116Z,72.28
2019-01-16T00:22:25.173Z,70.20
2019-01-16T00:23:33.215Z,68.79
2019-01-16T00:24:41.257Z,68.23
2019-01-16T00:25:49.308Z,67.66
2019-01-16T00:26:57.367Z,66.62
2019-01-16T00:28:05.427Z,65.30
2019-01-16T00:29:13.494Z,65.86
2019-01-16T00:30:21.528Z,66.43
2019-01-16T00:31:29.579Z,67.00
2019-01-16T00:32:37.635Z,67.28
2019-01-16T00:33:45.698Z,68.51
2019-01-16T00:34:53.739Z,69.54
2019-01-16T00:36:01.784Z,71.15
2019-01-16T00:37:09.856Z,70.87
2019-01-16T00:38:17.899Z,72.19
2019-01-16T00:39:25.962Z,73.13
2019-01-16T00:40:34.025Z,72.28
2019-01-16T00:41:42.073Z,69.45
2019-01-16T00:42:50.107Z,67.66
2019-01-16T00:43:58.168Z,65.48
2019-01-16T00:45:06.223Z,65.58
2019-01-16T00:46:14.264Z,64.83
2019-01-16T00:47:22.327Z,64.83
2019-01-16T00:48:30.369Z,65.67
2019-01-16T00:49:38.429Z,68.32
2019-01-16T00:50:46.495Z,69.17
2019-01-16T00:51:54.544Z,71.06
2019-01-16T00:53:02.592Z,70.02
2019-01-16T00:54:10.626Z,68.51
2019-01-16T00:55:18.695Z,68.51
2019-01-16T00:56:26.745Z,69.54
2019-01-16T00:57:34.801Z,71.81
2019-01-16T00:58:42.848Z,72.19
2019-01-16T00:59:50.892Z,73.32
2019-01-16T01:00:58.951Z,74.26
2019-01-16T01:02:07.012Z,72.38
2019-01-16T01:03:15.066Z,71.53
2019-01-16T01:04:23.100Z,69.73
2019-01-16T01:05:31.153Z,69.45
2019-01-16T01:06:39.221Z,70.77
2019-01-16T01:07:47.290Z,70.11
2019-01-16T01:08:55.339Z,69.26
2019-01-16T01:10:03.391Z,70.30
2019-01-16T01:11:11.408Z,69.35
2019-01-16T01:12:19.476Z,67.85
2019-01-16T01:13:27.542Z,68.41
2019-01-16T01:14:35.598Z,68.98
2019-01-16T01:15:43.647Z,71.34
2019-01-16T01:16:51.701Z,73.13
2019-01-16T01:17:59.739Z,74.64
2019-01-16T01:19:07.813Z,75.87
2019-01-16T01:20:15.854Z,76.43
2019-01-16T01:21:23.909Z,76.62
2019-01-16T01:22:31.975Z,77.81
2019-01-16T01:23:40.025Z,79.13
2019-01-16T01:24:48.063Z,79.60
2019-01-16T01:25:56.127Z,79.03
2019-01-16T01:28:18.095Z,74.51
2019-01-16T01:29:26.140Z,71.96
2019-01-16T01:30:34.203Z,72.53
2019-01-16T01:31:42.239Z,72.81
2019-01-16T01:32:50.291Z,73.75
2019-01-16T01:33:58.333Z,74.88
2019-01-16T01:35:06.402Z,76.49
2019-01-16T01:36:14.445Z,78.56
2019-01-16T01:37:22.518Z,80.73
2019-01-16T01:38:30.540Z,81.96
2019-01-16T01:39:38.603Z,81.96
2019-01-16T01:40:46.639Z,82.24
2019-01-16T01:41:54.794Z,81.77
2019-01-16T01:44:20.585Z,81.58
2019-01-16T01:45:28.573Z,81.02
2019-01-16T01:46:38.237Z,81.49
2019-01-16T01:49:17.388Z,80.83
2019-01-16T01:50:25.446Z,79.41
2019-01-16T01:51:33.499Z,77.53
2019-01-16T01:52:41.564Z,76.21
2019-01-16T01:53:51.187Z,75.36
2019-01-16T01:54:59.252Z,75.17
2019-01-16T01:56:07.316Z,76.40
2019-01-16T01:57:15.357Z,76.40
2019-01-16T01:58:23.415Z,76.58
2019-01-16T01:59:31.487Z,76.40
2019-01-16T02:00:39.516Z,76.58
2019-01-16T02:01:47.559Z,76.68
2019-01-16T02:02:55.607Z,76.49
2019-01-16T02:04:03.665Z,77.15
2019-01-16T02:05:11.706Z,76.30
2019-01-16T02:06:19.777Z,75.64
2019-01-16T02:07:27.817Z,75.36
2019-01-16T02:08:35.859Z,77.44
2019-01-16T02:09:43.919Z,78.00
2019-01-16T02:10:51.973Z,78.56
2019-01-16T02:12:00.024Z,76.02
2019-01-16T02:13:08.072Z,76.49
2019-01-16T02:14:16.121Z,76.49
2019-01-16T02:15:24.150Z,76.49
2019-01-16T02:16:32.213Z,75.17
2019-01-16T02:17:40.266Z,75.07
2019-01-16T02:18:48.327Z,74.51
2019-01-16T02:19:56.370Z,74.51
2019-01-16T02:21:04.408Z,74.22
2019-01-16T02:22:12.480Z,71.96
2019-01-16T02:23:20.495Z,72.15
2019-01-16T02:24:28.556Z,72.53
2019-01-16T02:25:36.627Z,73.94
2019-01-16T02:26:44.685Z,74.79
2019-01-16T02:27:52.720Z,73.28
2019-01-16T02:29:00.750Z,75.26
2019-01-16T02:30:08.812Z,76.02
2019-01-16T02:31:16.872Z,76.68
2019-01-16T02:32:24.923Z,76.77
2019-01-16T02:33:32.965Z,76.21
2019-01-16T02:34:41.009Z,76.40
2019-01-16T02:35:49.076Z,76.11
2019-01-16T02:36:57.116Z,77.91
2019-01-16T02:38:05.174Z,78.00
2019-01-16T02:39:13.212Z,78.56
2019-01-16T02:40:21.256Z,78.00
2019-01-16T02:41:29.313Z,78.09
2019-01-16T02:42:37.384Z,78.56
2019-01-16T02:43:45.416Z,78.47
2019-01-16T02:44:53.479Z,76.96
2019-01-16T02:46:01.511Z,76.68
2019-01-16T02:47:09.569Z,76.30
2019-01-16T02:48:17.623Z,76.30
2019-01-16T02:49:25.694Z,76.58
2019-01-16T02:50:33.728Z,76.58
2019-01-16T02:51:41.766Z,76.68
2019-01-16T02:52:49.820Z,76.58
2019-01-16T02:53:57.870Z,77.15
2019-01-16T02:55:05.931Z,77.15
2019-01-16T02:56:13.972Z,77.25
2019-01-16T02:57:22.036Z,76.77
2019-01-16T02:58:30.070Z,75.36
2019-01-16T02:59:38.124Z,74.51
2019-01-16T03:00:46.167Z,73.66
2019-01-16T03:01:54.220Z,74.60
2019-01-16T03:03:02.279Z,75.17
2019-01-16T03:04:10.424Z,75.26
2019-01-16T03:05:21.803Z,75.54
2019-01-16T03:06:31.519Z,73.75
2019-01-16T03:07:39.530Z,72.53
2019-01-16T03:08:47.565Z,71.21
2019-01-16T03:09:55.620Z,69.89
2019-01-16T03:11:03.790Z,69.32
2019-01-16T03:12:11.702Z,68.76
2019-01-16T03:13:19.769Z,69.13
2019-01-16T03:14:27.813Z,70.73
2019-01-16T03:15:35.878Z,72.34
2019-01-16T03:16:43.929Z,72.44
2019-01-16T03:17:51.974Z,73.00
2019-01-16T03:19:04.423Z,72.91
2019-01-16T03:20:08.089Z,73.19
2019-01-16T03:21:16.127Z,73.66
2019-01-16T03:22:24.171Z,74.41
2019-01-16T03:23:32.235Z,75.83
2019-01-16T03:24:40.271Z,76.96
2019-01-16T03:25:48.317Z,77.34
2019-01-16T03:26:56.370Z,77.44
2019-01-16T03:28:04.425Z,79.50
2019-01-16T03:29:12.471Z,79.88
2019-01-16T03:30:20.502Z,82.15
2019-01-16T03:31:28.637Z,82.53
2019-01-16T03:32:36.626Z,80.64
2019-01-16T03:33:44.688Z,78.75
2019-01-16T03:34:52.709Z,78.00
2019-01-16T03:36:00.759Z,77.25
2019-01-16T03:37:08.811Z,77.53
2019-01-16T03:38:16.887Z,77.06
2019-01-16T03:39:24.918Z,76.96
2019-01-16T03:40:32.978Z,76.40
2019-01-16T03:41:41.006Z,74.41
2019-01-16T03:42:49.086Z,74.60
2019-01-16T03:43:57.123Z,76.02
2019-01-16T03:45:05.171Z,77.81
2019-01-16T03:46:13.236Z,76.11
2019-01-16T03:47:21.254Z,76.49
2019-01-16T03:48:29.333Z,76.49
2019-01-16T03:49:37.371Z,76.40
2019-01-16T03:50:45.421Z,75.83
2019-01-16T03:51:53.468Z,75.54
2019-01-16T03:53:01.519Z,75.17
2019-01-16T03:54:09.560Z,75.17
2019-01-16T03:55:17.622Z,75.07
2019-01-16T03:56:25.677Z,74.88
2019-01-16T03:57:33.715Z,74.69
2019-01-16T03:58:41.773Z,75.17
2019-01-16T03:59:49.821Z,77.06
2019-01-16T04:00:57.878Z,78.38
2019-01-16T04:02:05.927Z,79.32
2019-01-16T04:03:13.975Z,78.66
2019-01-16T04:04:22.022Z,77.91
2019-01-16T04:05:30.073Z,77.15
2019-01-16T04:06:38.109Z,77.06
2019-01-16T04:07:46.178Z,76.02
2019-01-16T04:08:54.223Z,75.36
2019-01-16T04:10:02.275Z,75.17
2019-01-16T04:11:10.321Z,75.83
2019-01-16T04:12:18.416Z,77.06
2019-01-16T04:13:26.421Z,76.30
2019-01-16T04:14:34.523Z,76.11
2019-01-16T04:15:42.511Z,73.28
2019-01-16T04:16:50.562Z,71.49
2019-01-16T04:17:58.617Z,72.34
2019-01-16T04:19:06.679Z,72.25
2019-01-16T04:20:14.718Z,72.81
2019-01-16T04:21:22.812Z,73.10
2019-01-16T04:22:30.804Z,72.53
2019-01-16T04:23:38.917Z,73.10
2019-01-16T04:24:46.917Z,74.22
2019-01-16T04:25:55.028Z,74.41
2019-01-16T04:27:03.011Z,74.41
2019-01-16T04:28:11.083Z,76.58
2019-01-16T04:29:19.124Z,75.17
2019-01-16T04:30:27.199Z,73.75
2019-01-16T04:31:35.214Z,73.57
2019-01-16T04:32:43.312Z,72.91
2019-01-16T04:33:51.295Z,72.72
2019-01-16T04:34:59.368Z,71.30
2019-01-16T04:36:07.421Z,70.17
2019-01-16T04:37:15.521Z,72.25
2019-01-16T04:38:23.517Z,73.38
2019-01-16T04:39:31.594Z,74.98
2019-01-16T04:40:39.614Z,76.58
2019-01-16T04:41:47.673Z,76.87
2019-01-16T04:42:55.708Z,75.54
2019-01-16T04:44:03.797Z,75.92
2019-01-16T04:45:11.826Z,76.30
2019-01-16T04:46:19.872Z,76.96
2019-01-16T04:47:28.017Z,76.58
2019-01-16T04:48:35.986Z,76.11
2019-01-16T04:49:44.013Z,76.21
2019-01-16T04:50:52.075Z,75.54
2019-01-16T04:52:00.119Z,74.98
2019-01-16T04:53:08.223Z,74.51
2019-01-16T04:54:16.250Z,74.41
2019-01-16T04:55:24.263Z,75.17
2019-01-16T04:56:32.325Z,75.54
2019-01-16T04:57:40.367Z,77.06
2019-01-16T04:58:48.430Z,77.15
2019-01-16T04:59:56.485Z,76.58
2019-01-16T05:01:04.505Z,77.81
2019-01-16T05:02:12.621Z,78.47
2019-01-16T05:03:20.615Z,76.87
2019-01-16T05:04:28.673Z,77.34
2019-01-16T05:05:36.710Z,77.72
2019-01-16T05:06:44.761Z,78.85
2019-01-16T05:07:52.822Z,78.47
2019-01-16T05:09:00.841Z,76.77
2019-01-16T05:10:09.022Z,77.06
2019-01-16T05:11:16.984Z,76.87
2019-01-16T05:12:25.025Z,72.62
2019-01-16T05:13:33.085Z,72.25
2019-01-16T05:14:41.119Z,68.85
2019-01-16T05:15:49.179Z,69.13
2019-01-16T05:16:57.224Z,70.92
2019-01-16T05:18:05.272Z,73.10
2019-01-16T05:19:13.323Z,74.69
2019-01-16T05:20:21.390Z,76.30
2019-01-16T05:21:29.434Z,78.56
2019-01-16T05:22:37.467Z,78.56
2019-01-16T05:23:45.516Z,77.72
2019-01-16T05:24:53.572Z,76.77
2019-01-16T05:26:01.633Z,76.96
2019-01-16T05:27:09.670Z,74.51
2019-01-16T05:28:17.732Z,76.30
2019-01-16T05:29:25.770Z,77.06
2019-01-16T05:30:33.831Z,78.85
2019-01-16T05:31:41.871Z,79.88
2019-01-16T05:32:49.919Z,79.50
2019-01-16T05:33:58.756Z,79.60
2019-01-16T05:35:06.014Z,79.60
2019-01-16T05:36:14.078Z,80.64
2019-01-16T05:37:22.119Z,81.30
2019-01-16T05:38:30.176Z,80.26
2019-01-16T05:39:38.225Z,80.54
2019-01-16T05:40:46.909Z,80.92
2019-01-16T05:41:54.316Z,80.45
2019-01-16T05:43:02.372Z,81.02
2019-01-16T05:44:12.078Z,76.30
2019-01-16T05:45:18.485Z,76.58
2019-01-16T05:46:26.527Z,76.30
2019-01-16T05:47:34.587Z,77.15
2019-01-16T05:48:42.623Z,75.07
2019-01-16T05:49:50.637Z,75.64
2019-01-16T05:50:58.719Z,76.40
2019-01-16T05:52:06.776Z,76.96
2019-01-16T05:53:14.816Z,77.62
2019-01-16T05:54:23.282Z,75.92
2019-01-16T05:55:31.242Z,73.28
2019-01-16T05:56:39.026Z,73.10
2019-01-16T05:57:47.076Z,69.04
2019-01-16T05:58:55.082Z,66.40
2019-01-16T06:00:03.114Z,68.10
2019-01-16T06:01:11.152Z,68.85
2019-01-16T06:02:19.222Z,72.62
2019-01-16T06:03:27.584Z,75.92
2019-01-16T06:04:35.322Z,74.04
2019-01-16T06:05:43.378Z,75.26
2019-01-16T06:06:51.396Z,77.44
2019-01-16T06:07:59.480Z,77.72
2019-01-16T06:09:07.513Z,77.25
2019-01-16T06:10:17.199Z,75.36
2019-01-16T06:11:23.629Z,72.62
2019-01-16T06:12:31.665Z,69.04
2019-01-16T06:13:39.710Z,69.13
2019-01-16T06:14:47.772Z,69.98
2019-01-16T06:15:55.805Z,71.58
2019-01-16T06:17:03.862Z,72.81
2019-01-16T06:18:11.915Z,75.07
2019-01-16T06:19:19.967Z,75.54
2019-01-16T06:20:28.012Z,77.15
2019-01-16T06:21:36.078Z,76.21
2019-01-16T06:22:44.130Z,74.79
2019-01-16T06:23:52.176Z,75.17
2019-01-16T06:25:00.266Z,75.83
2019-01-16T06:26:08.273Z,75.64
2019-01-16T06:27:16.313Z,75.36
2019-01-16T06:28:24.382Z,75.83
2019-01-16T06:29:32.409Z,76.58
2019-01-16T06:30:40.456Z,77.91
2019-01-16T06:31:48.516Z,77.34
2019-01-16T06:32:56.570Z,76.21
2019-01-16T06:34:04.636Z,74.88
2019-01-16T06:35:12.661Z,74.98
2019-01-16T06:36:20.690Z,76.21
2019-01-16T06:37:28.778Z,75.92
2019-01-16T06:38:36.811Z,76.58
2019-01-16T06:39:44.873Z,75.83
2019-01-16T06:40:52.914Z,69.98
2019-01-16T06:42:00.951Z,68.29
2019-01-16T06:43:09.030Z,72.34
2019-01-16T06:44:17.064Z,71.68
2019-01-16T06:45:25.121Z,64.89
2019-01-16T06:46:33.152Z,61.02
2019-01-16T06:47:41.204Z,61.11
2019-01-16T06:48:49.278Z,61.58
2019-01-16T06:50:01.613Z,61.87
2019-01-16T06:51:05.358Z,61.40
2019-01-16T06:52:13.416Z,61.40
2019-01-16T06:53:21.463Z,58.95
2019-01-16T06:54:29.564Z,56.12
2019-01-16T06:55:37.563Z,55.36
2019-01-16T06:56:45.612Z,55.65
2019-01-16T06:57:53.688Z,55.74
2019-01-16T06:59:01.713Z,53.95
2019-01-16T07:00:09.756Z,53.00
2019-01-16T07:01:17.868Z,52.25
2019-01-16T07:02:25.868Z,52.15
2019-01-16T07:03:33.970Z,52.25
2019-01-16T07:04:41.971Z,51.87
2019-01-16T07:05:50.057Z,51.97
2019-01-16T07:06:58.062Z,51.31
2019-01-16T07:08:06.116Z,51.03
2019-01-16T07:09:14.155Z,51.03
2019-01-16T07:10:22.213Z,50.55
2019-01-16T07:11:30.275Z,50.08
2019-01-16T07:12:38.375Z,49.42
2019-01-16T07:13:46.358Z,48.88
2019-01-16T07:14:54.549Z,48.41
2019-01-16T07:16:02.465Z,48.50
2019-01-16T07:17:10.554Z,48.60
2019-01-16T07:18:18.567Z,47.94
2019-01-16T07:19:26.622Z,47.56
2019-01-16T07:20:34.663Z,47.46
2019-01-16T07:21:42.716Z,47.27
2019-01-16T07:22:50.742Z,46.90
2019-01-16T07:23:58.825Z,46.42
2019-01-16T07:25:06.860Z,45.76
2019-01-16T07:26:14.927Z,46.23
2019-01-16T07:27:23.115Z,45.39
2019-01-16T07:28:31.004Z,45.20
2019-01-16T07:29:39.067Z,44.82
2019-01-16T07:30:47.109Z,44.64
2019-01-16T07:31:55.163Z,43.78
2019-01-16T07:33:03.206Z,43.97
2019-01-16T07:34:11.252Z,43.80
2019-01-16T07:35:19.320Z,43.71
2019-01-16T07:36:27.370Z,43.71
2019-01-16T07:37:35.437Z,43.43
2019-01-16T07:38:43.489Z,43.33
2019-01-16T07:39:51.517Z,43.24
2019-01-16T07:40:59.572Z,43.33
2019-01-16T07:42:07.612Z,43.15
2019-01-16T07:43:15.682Z,43.24
2019-01-16T07:44:23.726Z,43.24
2019-01-16T07:45:31.770Z,43.43
2019-01-16T07:46:39.827Z,43.52
2019-01-16T07:47:47.893Z,42.96
2019-01-16T07:48:55.929Z,42.96
2019-01-16T07:50:03.970Z,42.77
2019-01-16T07:51:12.040Z,43.43
2019-01-16T07:52:20.093Z,43.05
2019-01-16T07:53:28.134Z,43.52
2019-01-16T07:54:36.189Z,43.24
2019-01-16T07:55:44.248Z,42.67
2019-01-16T07:56:52.290Z,43.05
2019-01-16T07:58:00.356Z,42.86
2019-01-16T07:59:08.397Z,43.05
2019-01-16T08:00:16.443Z,43.33
2019-01-16T08:01:24.506Z,43.24
2019-01-16T08:02:32.547Z,43.43
2019-01-16T08:03:40.596Z,43.15
2019-01-16T08:04:48.657Z,43.62
2019-01-16T08:05:56.691Z,43.90
2019-01-16T08:07:04.746Z,43.43
2019-01-16T08:08:12.807Z,43.05
2019-01-16T08:09:20.825Z,43.15
2019-01-16T08:10:28.904Z,42.96
2019-01-16T08:11:36.961Z,43.33
2019-01-16T08:12:45.006Z,43.52
2019-01-16T08:13:53.074Z,43.80
2019-01-16T08:15:01.112Z,44.46
2019-01-16T08:16:09.167Z,44.18
2019-01-16T08:17:17.223Z,44.18
2019-01-16T08:18:25.265Z,44.75
2019-01-16T08:19:33.308Z,44.65
2019-01-16T08:20:41.351Z,44.65
2019-01-16T08:21:49.409Z,44.75
2019-01-16T08:22:57.478Z,44.27
2019-01-16T08:24:05.525Z,43.71
2019-01-16T08:25:13.570Z,44.18
2019-01-16T08:26:21.629Z,44.46
2019-01-16T08:27:29.667Z,44.56
2019-01-16T08:28:37.725Z,44.46
2019-01-16T08:29:45.782Z,44.75
2019-01-16T08:30:53.841Z,45.13
2019-01-16T08:32:01.890Z,45.41
2019-01-16T08:33:09.938Z,45.88
2019-01-16T08:34:17.993Z,46.17
2019-01-16T08:35:26.026Z,47.02
2019-01-16T08:36:34.095Z,47.67
2019-01-16T08:37:42.135Z,48.43
2019-01-16T08:38:50.194Z,48.90
2019-01-16T08:39:58.243Z,49.00
2019-01-16T08:41:06.305Z,49.28
2019-01-16T08:42:14.350Z,51.07
2019-01-16T08:43:22.404Z,51.64
2019-01-16T08:44:30.481Z,50.79
2019-01-16T08:45:38.511Z,50.89
2019-01-16T08:46:46.563Z,50.51
2019-01-16T08:47:54.614Z,48.90
2019-01-16T08:49:02.671Z,49.09
2019-01-16T08:50:10.699Z,48.90
2019-01-16T08:51:18.832Z,49.85
2019-01-16T08:52:26.810Z,50.04
2019-01-16T08:53:35.397Z,49.47
2019-01-16T08:54:42.916Z,49.66
2019-01-16T08:55:51.022Z,49.47
2019-01-16T08:56:59.017Z,49.19
2019-01-16T08:58:07.123Z,49.19
2019-01-16T08:59:15.141Z,48.90
2019-01-16T09:00:23.171Z,50.44
2019-01-16T09:01:32.640Z,51.36
2019-01-16T09:02:39.288Z,54.32
2019-01-16T09:03:47.331Z,53.56
2019-01-16T09:04:55.454Z,53.65
2019-01-16T09:06:03.449Z,54.88
2019-01-16T09:07:11.532Z,55.16
2019-01-16T09:08:19.544Z,57.43
2019-01-16T09:09:27.591Z,62.81
2019-01-16T09:10:35.672Z,62.62
2019-01-16T09:11:43.710Z,63.57
2019-01-16T09:12:51.762Z,65.46
2019-01-16T09:13:59.801Z,66.97
2019-01-16T09:15:07.873Z,68.01
2019-01-16T09:16:15.926Z,67.82
2019-01-16T09:17:23.979Z,68.86
2019-01-16T09:18:32.017Z,68.39
2019-01-16T09:19:40.091Z,68.48
2019-01-16T09:20:48.122Z,68.01
2019-01-16T09:21:56.289Z,66.03
2019-01-16T09:23:04.225Z,66.50
2019-01-16T09:24:12.271Z,65.17
2019-01-16T09:25:20.330Z,63.48
2019-01-16T09:26:28.404Z,62.34
2019-01-16T09:27:36.446Z,63.00
2019-01-16T09:28:44.480Z,62.34
2019-01-16T09:29:52.544Z,62.06
2019-01-16T09:31:00.569Z,62.81
2019-01-16T09:32:08.644Z,62.62
2019-01-16T09:33:16.694Z,62.06
2019-01-16T09:34:24.759Z,63.85
2019-01-16T09:35:32.806Z,65.84
2019-01-16T09:36:40.838Z,65.46
2019-01-16T09:37:48.917Z,66.88
2019-01-16T09:38:56.988Z,67.10
2019-01-16T09:40:05.029Z,69.18
2019-01-16T09:41:13.066Z,70.78
2019-01-16T09:42:21.128Z,73.71
2019-01-16T09:43:29.177Z,74.38
2019-01-16T09:44:37.229Z,74.09
2019-01-16T09:45:45.295Z,74.95
2019-01-16T09:46:53.335Z,77.59
2019-01-16T09:48:01.369Z,78.53
2019-01-16T09:49:09.447Z,81.18
2019-01-16T09:50:17.490Z,80.90
2019-01-16T09:51:25.543Z,81.37
2019-01-16T09:52:33.597Z,81.37
2019-01-16T09:53:41.647Z,80.62
2019-01-16T09:54:49.704Z,77.12
2019-01-16T09:55:57.775Z,78.48
2019-01-16T09:57:05.807Z,78.10
2019-01-16T09:58:13.866Z,81.41
2019-01-16T09:59:21.928Z,82.35
2019-01-16T10:00:29.978Z,84.72
2019-01-16T10:01:38.013Z,85.10
2019-01-16T10:02:46.082Z,87.27
2019-01-16T10:03:54.138Z,88.03
2019-01-16T10:05:02.211Z,90.77
2019-01-16T10:06:10.257Z,90.58
2019-01-16T10:07:18.298Z,89.45
2019-01-16T10:08:26.346Z,89.87
2019-01-16T10:09:34.404Z,90.25
2019-01-16T10:10:42.465Z,92.52
2019-01-16T10:11:50.496Z,95.83
2019-01-16T10:12:58.565Z,97.25
2019-01-16T10:14:06.623Z,99.99
2019-01-16T10:15:14.671Z,99.99
2019-01-16T10:16:22.712Z,97.53
2019-01-16T10:17:30.770Z,98.48
2019-01-16T10:18:38.838Z,99.99
2019-01-16T10:19:46.889Z,99.24
2019-01-16T10:20:55.707Z,99.99
2019-01-16T10:22:02.992Z,99.90
2019-01-16T10:23:11.016Z,99.99
2019-01-16T10:24:19.107Z,99.99
2019-01-16T10:25:27.153Z,99.99
2019-01-16T10:26:35.209Z,99.99
2019-01-16T10:27:43.267Z,99.99
2019-01-16T10:28:51.301Z,99.99
2019-01-16T10:29:59.396Z,99.99
2019-01-16T10:31:07.426Z,99.99
2019-01-16T10:32:15.489Z,99.99
2019-01-16T10:33:23.540Z,99.52
2019-01-16T10:34:31.586Z,99.99
2019-01-16T10:35:39.650Z,99.99
2019-01-16T10:36:47.696Z,99.99
2019-01-16T10:37:55.752Z,99.99
2019-01-16T10:39:03.814Z,99.99
2019-01-16T10:40:11.854Z,99.99
2019-01-16T10:41:19.921Z,99.99
2019-01-16T10:42:27.982Z,99.99
2019-01-16T10:43:36.046Z,99.99
2019-01-16T10:44:44.086Z,99.99
2019-01-16T10:45:52.141Z,99.99
2019-01-16T10:47:00.184Z,99.99
2019-01-16T10:48:08.258Z,99.99
2019-01-16T10:49:16.318Z,99.99
2019-01-16T10:50:24.368Z,99.99
2019-01-16T10:51:32.417Z,99.99
2019-01-16T10:52:40.458Z,99.99
2019-01-16T10:53:48.528Z,99.99
2019-01-16T10:54:56.575Z,99.99
2019-01-16T10:56:04.632Z,99.99
2019-01-16T10:57:12.695Z,99.99
2019-01-16T10:58:20.726Z,99.99
2019-01-16T10:59:28.810Z,99.99
2019-01-16T11:00:36.862Z,99.99
2019-01-16T11:01:44.923Z,99.99
2019-01-16T11:02:52.974Z,99.99
2019-01-16T11:04:01.010Z,99.99
2019-01-16T11:05:09.086Z,99.99
2019-01-16T11:06:17.142Z,99.99
2019-01-16T11:07:25.191Z,99.99
2019-01-16T11:08:33.246Z,99.99
2019-01-16T11:09:41.281Z,99.99
2019-01-16T11:10:49.361Z,99.99
2019-01-16T11:11:57.431Z,99.99
2019-01-16T11:13:05.483Z,99.99
2019-01-16T11:14:13.559Z,99.99
2019-01-16T11:15:21.572Z,99.99
2019-01-16T11:16:29.649Z,99.99
2019-01-16T11:17:37.700Z,99.99
2019-01-16T11:18:45.864Z,99.99
2019-01-16T11:19:53.822Z,99.99
2019-01-16T11:21:01.883Z,99.99
2019-01-16T11:22:09.936Z,99.99
2019-01-16T11:23:18.001Z,99.99
2019-01-16T11:24:26.081Z,99.99
2019-01-16T11:25:34.100Z,99.99
2019-01-16T11:26:42.164Z,99.99
2019-01-16T11:27:50.224Z,99.99
2019-01-16T11:28:58.267Z,99.99
2019-01-16T11:30:06.317Z,99.99
2019-01-16T11:31:14.382Z,99.99
2019-01-16T11:32:22.439Z,99.99
2019-01-16T11:33:30.488Z,99.99
2019-01-16T11:34:38.545Z,99.99
2019-01-16T11:35:46.636Z,99.99
2019-01-16T11:36:54.661Z,99.99
2019-01-16T11:38:02.727Z,99.99
2019-01-16T11:39:10.752Z,99.99
2019-01-16T11:40:18.828Z,99.99
2019-01-16T11:41:26.892Z,99.99
2019-01-16T11:42:34.938Z,99.99
2019-01-16T11:43:43.018Z,99.99
2019-01-16T11:44:51.040Z,99.99
2019-01-16T11:45:59.135Z,99.99
2019-01-16T11:47:07.181Z,99.99
2019-01-16T11:48:15.238Z,99.99
2019-01-16T11:49:23.301Z,99.99
2019-01-16T11:50:31.318Z,99.99
2019-01-16T11:51:39.408Z,99.99
2019-01-16T11:52:47.481Z,99.99
2019-01-16T11:53:55.531Z,99.99
2019-01-16T11:55:03.579Z,99.99
2019-01-16T11:56:11.626Z,99.99
2019-01-16T11:57:19.713Z,99.99
2019-01-16T11:58:27.749Z,99.99
2019-01-16T11:59:35.808Z,99.99
2019-01-16T12:00:43.874Z,99.99
2019-01-16T12:01:51.931Z,99.99
2019-01-16T12:02:59.987Z,99.99
2019-01-16T12:04:08.040Z,99.99
2019-01-16T12:05:16.102Z,99.99
2019-01-16T12:06:24.170Z,99.99
2019-01-16T12:07:32.224Z,99.99
2019-01-16T12:08:40.277Z,99.99
2019-01-16T12:09:48.327Z,99.99
2019-01-16T12:10:56.393Z,99.99
2019-01-16T12:12:04.470Z,99.99
2019-01-16T12:13:12.503Z,99.99
2019-01-16T12:14:20.537Z,99.99
2019-01-16T12:15:28.610Z,99.99
2019-01-16T12:16:36.674Z,99.99
2019-01-16T12:17:44.731Z,99.99
2019-01-16T12:18:52.795Z,99.99
2019-01-16T12:20:00.818Z,99.99
2019-01-16T12:21:08.902Z,99.99
2019-01-16T12:22:16.969Z,99.99
2019-01-16T12:23:25.018Z,99.99
2019-01-16T12:24:33.074Z,99.99
2019-01-16T12:25:41.108Z,99.99
2019-01-16T12:26:49.188Z,99.99
2019-01-16T12:27:57.263Z,99.99
2019-01-16T12:29:05.300Z,99.99
2019-01-16T12:30:13.361Z,99.99
2019-01-16T12:31:21.398Z,99.99
2019-01-16T12:32:29.476Z,99.99
2019-01-16T12:33:37.561Z,99.99
2019-01-16T12:34:45.593Z,99.99
2019-01-16T12:35:53.645Z,99.99
2019-01-16T12:37:01.693Z,99.99
2019-01-16T12:38:09.770Z,99.99
2019-01-16T12:39:17.858Z,99.99
2019-01-16T12:40:25.931Z,99.99
2019-01-16T12:41:33.948Z,99.99
2019-01-16T12:42:42.024Z,99.99
2019-01-16T12:43:50.056Z,99.99
2019-01-16T12:44:58.147Z,99.99
2019-01-16T12:46:06.172Z,99.99
2019-01-16T12:47:14.231Z,99.99
2019-01-16T12:48:22.284Z,99.99
2019-01-16T12:49:30.332Z,99.99
2019-01-16T12:50:38.382Z,99.99
2019-01-16T12:51:46.489Z,99.99
2019-01-16T12:52:54.504Z,99.99
2019-01-16T12:54:02.549Z,99.99
2019-01-16T12:55:10.612Z,99.99
2019-01-16T12:56:18.684Z,99.99
2019-01-16T12:57:26.732Z,99.99
2019-01-16T12:58:34.793Z,99.99
2019-01-16T12:59:42.842Z,99.99
2019-01-16T13:00:50.872Z,99.99
2019-01-16T13:01:58.966Z,99.99
2019-01-16T13:03:07.063Z,99.99
2019-01-16T13:04:15.078Z,99.99
2019-01-16T13:05:23.119Z,99.99
2019-01-16T13:06:31.162Z,99.99
2019-01-16T13:07:39.260Z,99.99
2019-01-16T13:08:47.304Z,99.99
2019-01-16T13:09:55.363Z,99.99
2019-01-16T13:11:03.415Z,99.99
2019-01-16T13:12:11.451Z,99.99
2019-01-16T13:13:19.511Z,99.99
2019-01-16T13:14:29.955Z,99.99
2019-01-16T13:15:35.632Z,99.99
2019-01-16T13:16:43.702Z,99.99
2019-01-16T13:17:51.751Z,99.99
2019-01-16T13:18:59.806Z,99.99
2019-01-16T13:20:07.858Z,99.99
2019-01-16T13:21:15.936Z,99.99
2019-01-16T13:22:23.988Z,99.99
2019-01-16T13:23:32.021Z,99.99
2019-01-16T13:24:40.083Z,99.99
2019-01-16T13:25:48.243Z,99.99
2019-01-16T13:26:56.209Z,99.99
2019-01-16T13:28:04.255Z,99.99
2019-01-16T13:29:12.307Z,99.99
2019-01-16T13:30:20.374Z,99.99
2019-01-16T13:31:28.429Z,99.99
2019-01-16T13:32:36.487Z,99.99
2019-01-16T13:33:44.548Z,99.99
2019-01-16T13:34:52.592Z,99.99
2019-01-16T13:36:00.642Z,99.99
2019-01-16T13:37:08.709Z,99.99
2019-01-16T13:38:16.761Z,99.99
2019-01-16T13:39:24.822Z,99.99
2019-01-16T13:40:32.868Z,99.99
2019-01-16T13:41:40.904Z,99.99
2019-01-16T13:42:48.978Z,99.99
2019-01-16T13:43:57.036Z,99.99
2019-01-16T13:45:05.092Z,99.99
2019-01-16T13:46:14.597Z,99.99
2019-01-16T13:47:21.183Z,99.99
2019-01-16T13:48:29.271Z,99.99
2019-01-16T13:49:37.322Z,99.99
2019-01-16T13:50:45.375Z,99.99
2019-01-16T13:51:53.430Z,99.99
2019-01-16T13:53:01.483Z,99.99
2019-01-16T13:54:09.535Z,99.99
2019-01-16T13:55:17.607Z,99.99
2019-01-16T13:56:25.652Z,99.99
2019-01-16T13:57:33.704Z,99.99
2019-01-16T13:58:41.763Z,99.99
2019-01-16T13:59:49.813Z,99.99
2019-01-16T14:00:57.876Z,99.99
2019-01-16T14:02:05.941Z,99.99
2019-01-16T14:03:13.978Z,99.99
2019-01-16T14:04:22.040Z,99.99
2019-01-16T14:05:30.099Z,99.99
2019-01-16T14:06:38.145Z,99.99
2019-01-16T14:07:46.207Z,99.99
2019-01-16T14:08:54.266Z,99.99
2019-01-16T14:10:02.319Z,99.99
2019-01-16T14:11:10.392Z,99.99
2019-01-16T14:12:18.433Z,99.99
2019-01-16T14:13:26.502Z,99.99
2019-01-16T14:14:34.546Z,99.99
2019-01-16T14:15:42.606Z,99.99
2019-01-16T14:16:50.642Z,99.99
2019-01-16T14:17:58.718Z,99.99
2019-01-16T14:19:06.775Z,99.99
2019-01-16T14:20:14.818Z,99.99
2019-01-16T14:21:22.889Z,99.99
2019-01-16T14:22:30.901Z,99.99
2019-01-16T14:23:38.977Z,99.99
2019-01-16T14:24:47.052Z,99.99
2019-01-16T14:25:55.109Z,99.99
2019-01-16T14:27:03.165Z,99.99
2019-01-16T14:28:11.191Z,99.99
2019-01-16T14:29:19.272Z,99.99
2019-01-16T14:30:27.327Z,99.99
2019-01-16T14:31:35.384Z,99.99
2019-01-16T14:32:43.447Z,99.99
2019-01-16T14:33:51.488Z,99.99
2019-01-16T14:34:59.553Z,99.99
2019-01-16T14:36:07.607Z,99.99
2019-01-16T14:37:15.664Z,99.99
2019-01-16T14:38:23.711Z,99.99
2019-01-16T14:39:31.767Z,99.99
2019-01-16T14:40:39.821Z,99.99